Time;durP1;ratioP1;P1;durP2;ratioP2;P2;SDS_P1;SDS_P2;PMS_P1;PMS_P2;Temp;Humidity;BMP_temperature;BMP_pressure;BME280_temperature;BME280_humidity;BME280_pressure;Samples;Min_cycle;Max_cycle;Signal;HPM_P1;HPM_P2
2022/10/04 00:03:44;;;;;;;13.50;3.33;;;;;;;10.17;100.00;99517.59;8397438;28;20051;-79
2022/10/04 00:08:26;;;;;;;20.58;2.80;;;;;;;10.16;100.00;99510.56;8231624;28;20055;-79
2022/10/04 00:12:33;;;;;;;21.33;2.78;;;;;;;10.13;100.00;99513.84;8206429;28;20410;-81
2022/10/04 00:16:39;;;;;;;31.95;3.15;;;;;;;10.12;100.00;99520.34;8217112;28;20063;-79
2022/10/04 00:20:52;;;;;;;17.83;3.03;;;;;;;10.11;100.00;99518.72;8229058;28;20149;-79
2022/10/04 00:25:16;;;;;;;20.00;3.50;;;;;;;10.10;100.00;99517.13;8211377;28;20118;-80
2022/10/04 00:29:30;;;;;;;20.55;2.85;;;;;;;10.10;100.00;99506.31;8212231;28;20458;-79
2022/10/04 00:33:49;;;;;;;14.82;2.90;;;;;;;10.08;100.00;99497.75;8208238;28;20055;-79
2022/10/04 00:38:07;;;;;;;20.02;3.45;;;;;;;10.04;100.00;99496.75;8221997;28;20444;-81
2022/10/04 00:42:35;;;;;;;14.65;2.47;;;;;;;10.01;100.00;99502.72;8350727;28;20048;-79
2022/10/04 00:46:37;;;;;;;14.88;2.95;;;;;;;9.97;100.00;99501.72;8385505;28;20055;-79
2022/10/04 00:50:40;;;;;;;21.73;2.63;;;;;;;9.94;100.00;99508.47;8401975;28;20045;-79
2022/10/04 00:54:44;;;;;;;12.27;2.85;;;;;;;9.89;100.00;99515.84;8414072;28;20051;-79
2022/10/04 00:59:05;;;;;;;19.55;2.83;;;;;;;9.84;100.00;99507.84;8391759;28;20043;-80
2022/10/04 01:03:26;;;;;;;16.65;2.95;;;;;;;9.81;100.00;99503.03;8409268;28;20482;-80
2022/10/04 01:07:40;;;;;;;11.70;2.70;;;;;;;9.80;100.00;99501.44;8399275;28;20044;-79
2022/10/04 01:11:44;;;;;;;15.15;2.55;;;;;;;9.79;100.00;99499.81;8384247;28;20064;-79
2022/10/04 01:15:54;;;;;;;19.27;3.00;;;;;;;9.77;100.00;99507.44;8415873;28;20389;-80
2022/10/04 01:19:56;;;;;;;18.33;2.50;;;;;;;9.79;100.00;99499.81;8406860;28;20057;-79
2022/10/04 01:23:56;;;;;;;18.85;3.13;;;;;;;9.80;100.00;99506.81;8407508;28;20054;-79
2022/10/04 01:27:57;;;;;;;19.80;2.65;;;;;;;9.79;100.00;99505.22;8405969;28;20051;-79
2022/10/04 01:31:59;;;;;;;17.33;3.40;;;;;;;9.75;100.00;99505.81;8405620;28;20513;-79
2022/10/04 01:36:00;;;;;;;20.08;2.95;;;;;;;9.67;100.00;99498.41;8414459;28;20055;-80
2022/10/04 01:40:01;;;;;;;24.50;2.95;;;;;;;9.60;100.00;99492.56;8415421;28;20052;-79
2022/10/04 01:44:05;;;;;;;22.88;3.65;;;;;;;9.56;100.00;99496.16;8402327;28;20036;-79
2022/10/04 01:48:10;;;;;;;21.15;2.83;;;;;;;9.53;100.00;99494.81;8398088;28;20040;-79
2022/10/04 01:52:21;;;;;;;26.63;3.05;;;;;;;9.52;100.00;99501.31;8399072;28;20049;-79
2022/10/04 01:56:30;;;;;;;24.67;3.10;;;;;;;9.55;100.00;99508.81;8407276;28;20052;-79
2022/10/04 02:00:31;;;;;;;25.48;3.17;;;;;;;9.58;100.00;99510.91;8400520;28;20052;-79
2022/10/04 02:04:36;;;;;;;25.27;2.67;;;;;;;9.63;100.00;99497.38;8395223;28;20052;-80
2022/10/04 02:08:45;;;;;;;13.60;2.28;;;;;;;9.64;100.00;99498.97;8403679;28;20576;-79
2022/10/04 02:12:48;;;;;;;19.25;2.83;;;;;;;9.65;100.00;99495.19;8371681;28;20134;-79
2022/10/04 02:16:52;;;;;;;15.98;3.50;;;;;;;9.63;100.00;99491.97;8394331;28;20052;-79
2022/10/04 02:20:57;;;;;;;29.10;3.60;;;;;;;9.66;100.00;99496.78;8418501;28;20068;-80
2022/10/04 02:24:58;;;;;;;13.40;2.78;;;;;;;9.69;100.00;99501.59;8404983;28;20040;-80
2022/10/04 02:28:59;;;;;;;12.60;2.70;;;;;;;9.69;100.00;99490.81;8406458;28;20110;-79
2022/10/04 02:33:03;;;;;;;19.58;3.15;;;;;;;9.67;100.00;99487.63;8413343;28;20478;-80
2022/10/04 02:37:06;;;;;;;21.60;3.10;;;;;;;9.68;100.00;99493.78;8388758;28;20417;-80
2022/10/04 02:41:25;;;;;;;17.48;2.90;;;;;;;9.67;100.00;99493.00;8392586;28;20073;-79
2022/10/04 02:45:42;;;;;;;20.13;3.08;;;;;;;9.65;100.00;99489.78;8400905;28;20049;-79
2022/10/04 02:49:46;;;;;;;23.85;4.18;;;;;;;9.69;100.00;99496.19;8408005;28;20489;-78
2022/10/04 02:53:50;;;;;;;18.73;2.95;;;;;;;9.70;100.00;99492.41;8396117;28;20118;-79
2022/10/04 02:57:51;;;;;;;12.30;2.83;;;;;;;9.69;100.00;99488.09;8396472;28;20071;-79
2022/10/04 03:01:59;;;;;;;17.45;3.13;;;;;;;9.73;100.00;99502.59;8415587;28;20040;-79
2022/10/04 03:06:09;;;;;;;19.80;4.22;;;;;;;9.74;100.00;99506.91;8412137;28;20048;-80
2022/10/04 03:10:12;;;;;;;20.08;2.88;;;;;;;9.75;100.00;99507.72;8403415;28;20382;-81
2022/10/04 03:14:17;;;;;;;18.15;3.20;;;;;;;9.73;100.00;99509.88;8405898;28;20048;-79
2022/10/04 03:18:18;;;;;;;16.75;3.33;;;;;;;9.71;100.00;99510.19;8403025;28;20056;-79
2022/10/04 03:22:21;;;;;;;18.42;3.60;;;;;;;9.72;100.00;99521.78;8384329;28;20063;-78
2022/10/04 03:26:33;;;;;;;18.55;2.90;;;;;;;9.71;100.00;99515.59;8389299;28;20135;-80
2022/10/04 03:30:35;;;;;;;19.98;2.53;;;;;;;9.71;100.00;99521.00;8402455;28;20056;-80
2022/10/04 03:34:50;;;;;;;22.85;3.78;;;;;;;9.69;100.00;99533.97;8399643;28;20085;-78
2022/10/04 03:38:54;;;;;;;20.50;2.92;;;;;;;9.70;100.00;99524.78;8409789;28;20052;-80
2022/10/04 03:42:55;;;;;;;18.15;3.20;;;;;;;9.73;100.00;99524.19;8403529;28;20032;-79
2022/10/04 03:46:56;;;;;;;20.70;3.53;;;;;;;9.75;100.00;99522.00;8400880;28;20044;-80
2022/10/04 03:50:57;;;;;;;20.67;3.58;;;;;;;9.74;100.00;99530.38;8414413;28;20045;-80
2022/10/04 03:55:02;;;;;;;22.20;3.22;;;;;;;9.75;100.00;99527.41;8406347;28;20049;-80
2022/10/04 03:59:05;;;;;;;13.57;3.25;;;;;;;9.73;100.00;99524.19;8398868;28;20375;-79
2022/10/04 04:03:08;;;;;;;13.90;2.80;;;;;;;9.74;100.00;99519.59;8337265;28;20069;-79
2022/10/04 04:07:13;;;;;;;21.33;2.95;;;;;;;9.71;100.00;99521.00;8298241;28;20037;-80
2022/10/04 04:11:20;;;;;;;14.57;3.03;;;;;;;9.71;100.00;99525.59;8336302;28;20084;-79
2022/10/04 04:15:21;;;;;;;20.55;3.10;;;;;;;9.71;100.00;99520.19;8352683;28;20060;-79
2022/10/04 04:19:23;;;;;;;14.57;2.85;;;;;;;9.69;100.00;99527.75;8324703;28;20049;-79
2022/10/04 04:23:43;;;;;;;15.65;2.90;;;;;;;9.68;100.00;99532.34;8314591;28;20041;-80
2022/10/04 04:27:45;;;;;;;20.33;3.22;;;;;;;9.66;100.00;99522.97;8318019;28;20053;-80
2022/10/04 04:31:55;;;;;;;24.13;4.28;;;;;;;9.65;100.00;99527.56;8360191;28;20444;-81
2022/10/04 04:36:06;;;;;;;13.18;3.50;;;;;;;9.64;100.00;99542.13;8413789;28;20053;-81
2022/10/04 04:40:21;;;;;;;13.35;3.08;;;;;;;9.60;100.00;99541.09;8409373;28;20174;-81
2022/10/04 04:44:22;;;;;;;16.92;3.08;;;;;;;9.58;100.00;99543.28;8420879;28;20077;-82
2022/10/04 04:48:23;;;;;;;18.20;3.00;;;;;;;9.57;100.00;99536.28;8407784;28;20386;-81
2022/10/04 04:52:28;;;;;;;17.85;3.60;;;;;;;9.52;100.00;99544.44;8412709;28;20040;-81
2022/10/04 04:56:29;;;;;;;14.82;2.92;;;;;;;9.50;100.00;99552.03;8413169;28;20045;-81
2022/10/04 05:00:33;;;;;;;22.92;3.42;;;;;;;9.51;100.00;99542.84;8420756;28;20036;-81
2022/10/04 05:04:35;;;;;;;19.27;2.72;;;;;;;9.54;100.00;99558.44;8418857;28;20139;-82
2022/10/04 05:08:37;;;;;;;20.50;3.40;;;;;;;9.53;100.00;99556.84;8405563;28;20044;-81
2022/10/04 05:12:38;;;;;;;17.83;3.30;;;;;;;9.56;100.00;99561.66;8412555;28;20060;-80
2022/10/04 05:16:51;;;;;;;24.02;2.90;;;;;;;9.56;100.00;99572.44;8390619;28;20444;-80
2022/10/04 05:20:53;;;;;;;18.38;3.05;;;;;;;9.56;100.00;99572.44;8391976;28;20414;-81
2022/10/04 05:24:57;;;;;;;20.60;4.35;;;;;;;9.61;100.00;99580.47;8412537;28;20100;-80
2022/10/04 05:29:01;;;;;;;17.38;3.45;;;;;;;9.64;100.00;99579.88;8423123;28;20426;-79
2022/10/04 05:33:02;;;;;;;15.85;3.10;;;;;;;9.69;100.00;99587.91;8412906;28;20109;-81
2022/10/04 05:37:50;;;;;;;15.43;3.38;;;;;;;9.69;100.00;99587.91;8415154;28;20144;-81
2022/10/04 05:41:57;;;;;;;17.77;3.95;;;;;;;9.70;100.00;99594.91;8223386;28;20053;-81
2022/10/04 05:46:14;;;;;;;22.70;3.50;;;;;;;9.73;100.00;99599.69;8218386;28;20097;-81
2022/10/04 05:50:24;;;;;;;20.83;3.30;;;;;;;9.74;100.00;99612.09;8213184;28;20051;-81
2022/10/04 05:54:31;;;;;;;17.55;3.60;;;;;;;9.81;100.00;99605.53;8230215;28;20066;-82
2022/10/04 05:59:02;;;;;;;21.63;4.07;;;;;;;9.85;100.00;99611.94;8229451;28;20055;-80
2022/10/04 06:03:26;;;;;;;20.10;4.15;;;;;;;9.89;100.00;99607.56;8222659;28;20066;-82
2022/10/04 06:07:45;;;;;;;24.73;4.00;;;;;;;9.92;100.00;99629.41;8213564;28;20448;-80
2022/10/04 06:12:00;;;;;;;;;;;;;;;9.97;100.00;99631.22;8222928;28;20067;-81
2022/10/04 06:16:19;;;;;;;24.38;4.63;;;;;;;9.98;100.00;99638.22;8216186;28;19922;-82
2022/10/04 06:20:34;;;;;;;29.23;4.03;;;;;;;9.99;100.00;99639.81;8326079;28;20557;-82
2022/10/04 06:24:40;;;;;;;23.77;4.25;;;;;;;9.99;100.00;99639.81;8340122;28;20388;-82
2022/10/04 06:28:45;;;;;;;23.95;4.43;;;;;;;10.02;100.00;99644.63;8325259;28;20045;-81
2022/10/04 06:33:04;;;;;;;19.77;4.20;;;;;;;10.02;100.00;99650.03;8308786;28;20045;-81
2022/10/04 06:37:32;;;;;;;17.17;4.32;;;;;;;10.07;100.00;99647.25;8339433;28;20469;-82
2022/10/04 06:41:39;;;;;;;18.55;4.05;;;;;;;10.12;100.00;99649.88;8403513;28;20060;-83
2022/10/04 06:45:55;;;;;;;32.25;7.18;;;;;;;10.15;100.00;99649.31;8408333;28;20052;-83
2022/10/04 06:50:11;;;;;;;30.85;15.60;;;;;;;10.21;100.00;99650.03;8425647;28;20037;-83
2022/10/04 06:54:20;;;;;;;26.58;6.85;;;;;;;10.27;100.00;99652.38;8409577;28;20045;-81
2022/10/04 06:58:40;;;;;;;27.80;10.60;;;;;;;10.34;100.00;99663.63;8412376;28;20079;-81
2022/10/04 07:03:13;;;;;;;89.43;30.38;;;;;;;10.45;100.00;99665.06;8418332;28;20719;-82
2022/10/04 07:07:23;;;;;;;37.03;10.80;;;;;;;10.55;100.00;99675.72;8421126;28;20135;-82
2022/10/04 07:11:42;;;;;;;28.77;7.55;;;;;;;10.65;100.00;99673.94;8423812;28;20056;-81
2022/10/04 07:15:51;;;;;;;39.85;10.85;;;;;;;10.67;100.00;99671.75;8397268;28;20459;-82
2022/10/04 07:19:52;;;;;;;;;;;;;;;10.74;100.00;99672.16;8376425;28;20143;-83
2022/10/04 07:23:57;;;;;;;16.52;5.53;;;;;;;10.80;100.00;99692.59;8375320;28;20443;-83
2022/10/04 07:32:25;;;;;;;36.85;6.70;;;;;;;10.89;100.00;99690.84;8392591;28;20048;-83
2022/10/04 07:36:39;;;;;;;23.15;5.03;;;;;;;10.97;100.00;99692.84;8392370;28;20466;-82
2022/10/04 07:40:55;;;;;;;33.28;8.20;;;;;;;11.06;100.00;99691.06;8390147;28;20056;-82
2022/10/04 07:45:07;;;;;;;17.80;4.20;;;;;;;11.12;100.00;99700.69;8394093;28;20092;-81
2022/10/04 07:49:16;;;;;;;32.20;9.40;;;;;;;11.15;100.00;99710.91;8422641;28;20101;-81
2022/10/04 07:53:17;;;;;;;;;;;;;;;11.22;100.00;99711.31;8421004;28;20126;-82
2022/10/04 07:57:47;;;;;;;41.53;10.13;;;;;;;11.24;100.00;99719.94;8433119;28;20285;-84
2022/10/04 08:02:15;;;;;;;16.80;4.32;;;;;;;11.24;100.00;99719.94;8314127;28;20149;-82
2022/10/04 08:06:30;;;;;;;20.63;4.35;;;;;;;11.27;100.00;99729.34;8318453;28;20551;-81
2022/10/04 08:11:09;;;;;;;29.73;5.53;;;;;;;11.32;100.00;99729.25;8319030;28;20515;-82
2022/10/04 08:15:13;;;;;;;22.25;4.50;;;;;;;11.22;100.00;99732.94;8223575;28;20063;-82
2022/10/04 08:19:34;;;;;;;43.15;7.60;;;;;;;11.16;100.00;99744.94;8228220;28;20138;-81
2022/10/04 08:24:00;;;;;;;36.55;7.47;;;;;;;11.30;100.00;99756.59;8232194;28;20078;-83
2022/10/04 08:32:22;;;;;;;19.50;3.60;;;;;;;11.62;96.38;99758.44;8216020;28;20058;-82
2022/10/04 08:36:45;;;;;;;15.25;3.38;;;;;;;11.69;95.89;99758.03;8185878;28;20046;-80
2022/10/04 08:40:49;;;;;;;39.00;7.38;;;;;;;11.80;95.54;99765.69;8323069;28;20046;-80
2022/10/04 08:45:23;;;;;;;60.15;10.00;;;;;;;11.91;95.04;99766.28;8321309;28;20085;-81
2022/10/04 08:49:25;;;;;;;36.70;6.78;;;;;;;11.96;94.59;99763.47;8321249;28;20052;-82
2022/10/04 08:54:04;;;;;;;37.55;7.38;;;;;;;12.22;94.23;99767.28;8417311;28;20039;-83
2022/10/04 08:58:20;;;;;;;23.92;5.30;;;;;;;12.27;93.17;99772.56;8288577;28;20061;-81
2022/10/04 09:02:43;;;;;;;118.07;21.15;;;;;;;12.25;92.80;99772.09;8289314;28;20058;-82
2022/10/04 09:06:44;;;;;;;49.45;10.70;;;;;;;12.32;92.89;99777.06;8292544;28;20506;-82
2022/10/04 09:10:54;;;;;;;28.58;6.20;;;;;;;12.48;92.54;99774.84;8295774;28;20053;-81
2022/10/04 09:15:17;;;;;;;13.68;3.20;;;;;;;12.43;91.06;99783.06;8283090;28;20066;-84
2022/10/04 09:19:20;;;;;;;21.15;3.60;;;;;;;12.35;89.75;99786.50;8270100;28;20385;-82
2022/10/04 09:23:30;;;;;;;13.10;3.15;;;;;;;12.43;89.38;99788.50;8281605;28;20038;-80
2022/10/04 09:27:48;;;;;;;10.98;2.70;;;;;;;12.55;88.16;99780.66;8325256;28;20486;-82
2022/10/04 09:32:08;;;;;;;11.52;2.92;;;;;;;12.78;87.32;99778.78;8413204;28;20497;-81
2022/10/04 09:36:15;;;;;;;11.02;2.67;;;;;;;13.03;85.54;99770.84;8390630;28;20062;-81
2022/10/04 09:40:43;;;;;;;13.20;3.47;;;;;;;13.34;86.10;99775.53;8407461;28;20053;-84
2022/10/04 09:45:04;;;;;;;13.32;2.85;;;;;;;13.41;84.22;99775.91;8324645;28;20140;-83
2022/10/04 09:49:12;;;;;;;14.50;2.55;;;;;;;13.66;83.33;99777.94;8358528;28;20045;-82
2022/10/04 09:53:16;;;;;;;10.68;2.80;;;;;;;13.80;82.83;99784.06;8342055;28;20049;-83
2022/10/04 09:57:26;;;;;;;16.67;3.83;;;;;;;13.76;82.34;99783.09;8359852;28;20055;-82
2022/10/04 10:01:59;;;;;;;9.32;3.00;;;;;;;13.60;81.83;99790.03;8361437;28;20413;-81
2022/10/04 10:06:30;;;;;;;14.50;4.20;;;;;;;13.66;81.84;99794.22;8359349;28;20048;-81
2022/10/04 10:15:35;;;;;;;9.02;2.17;;;;;;;14.20;80.74;99786.75;8350430;28;20052;-83
2022/10/04 10:20:22;;;;;;;8.73;2.22;;;;;;;14.51;79.09;99782.06;8360607;28;20067;-82
2022/10/04 10:24:45;;;;;;;13.70;2.30;;;;;;;14.20;79.09;99808.50;8348195;28;20049;-81
2022/10/04 10:29:09;;;;;;;9.20;2.40;;;;;;;13.73;79.46;99805.44;8358206;28;20064;-82
2022/10/04 10:33:11;;;;;;;10.82;2.15;;;;;;;13.50;79.72;99817.44;8341422;28;20052;-80
2022/10/04 10:37:49;;;;;;;9.52;2.10;;;;;;;13.22;80.34;99805.16;8355381;28;20045;-82
2022/10/04 10:42:20;;;;;;;8.53;2.43;;;;;;;12.92;81.06;99812.06;8287286;28;20052;-82
2022/10/04 10:46:45;;;;;;;8.52;2.88;;;;;;;12.77;82.47;99815.94;8274924;28;20100;-81
2022/10/04 10:51:00;;;;;;;11.38;2.30;;;;;;;12.70;83.46;99815.53;8280320;28;20046;-82
2022/10/04 10:55:12;;;;;;;9.77;1.92;;;;;;;12.72;83.69;99813.34;8288521;28;20057;-81
2022/10/04 10:59:40;;;;;;;10.80;2.10;;;;;;;13.14;83.06;99803.16;8301727;28;20138;-81
2022/10/04 11:03:56;;;;;;;14.63;2.53;;;;;;;13.45;82.08;99814.84;8339399;28;20045;-79
2022/10/04 11:08:28;;;;;;;15.30;2.88;;;;;;;13.79;81.65;99804.19;8353688;28;20060;-80
2022/10/04 11:12:52;;;;;;;8.45;2.25;;;;;;;14.06;80.46;99813.25;8353951;28;20095;-80
2022/10/04 11:17:05;;;;;;;15.13;2.22;;;;;;;14.45;79.59;99799.63;8360966;28;20084;-80
2022/10/04 11:21:31;;;;;;;17.38;2.78;;;;;;;14.91;78.04;99800.94;8417360;23;20343;-72
2022/10/04 11:25:50;;;;;;;9.85;2.25;;;;;;;15.17;75.41;99809.91;8295761;28;20115;-77
2022/10/04 11:30:25;;;;;;;16.48;2.40;;;;;;;15.21;76.05;99817.09;8319786;22;20132;-78
2022/10/04 11:35:00;;;;;;;11.73;2.40;;;;;;;15.08;74.24;99817.25;8208261;28;20565;-78
2022/10/04 11:39:23;;;;;;;10.23;1.98;;;;;;;14.83;76.24;99826.22;8209103;28;20062;-78
2022/10/04 11:43:43;;;;;;;9.05;2.30;;;;;;;14.97;75.46;99826.84;8193636;28;20055;-77
2022/10/04 11:47:59;;;;;;;8.98;2.10;;;;;;;15.28;74.98;99827.47;8203216;28;20059;-78
2022/10/04 11:52:33;;;;;;;7.43;2.13;;;;;;;15.34;74.15;99831.63;8190838;28;20529;-78
2022/10/04 11:56:40;;;;;;;14.80;2.53;;;;;;;15.42;72.63;99825.38;8185362;28;20530;-77
2022/10/04 12:01:18;;;;;;;6.13;2.10;;;;;;;15.53;72.21;99813.06;8195414;28;20067;-78
2022/10/04 12:05:41;;;;;;;13.00;2.33;;;;;;;15.45;72.23;99822.00;8205209;28;20055;-77
2022/10/04 12:10:15;;;;;;;10.07;2.10;;;;;;;15.28;71.79;99830.19;8272396;28;20451;-77
2022/10/04 12:14:25;;;;;;;9.65;1.95;;;;;;;15.11;71.84;99816.63;8304231;28;20054;-77
2022/10/04 12:19:08;;;;;;;5.07;1.65;;;;;;;15.61;72.00;99814.94;8318660;28;20103;-78
2022/10/04 12:23:38;;;;;;;7.18;1.63;;;;;;;15.65;70.54;99808.88;8215826;28;20510;-78
2022/10/04 12:27:51;;;;;;;9.80;2.30;;;;;;;15.25;71.06;99822.69;8173340;29;20341;-78
2022/10/04 12:32:11;;;;;;;5.85;1.70;;;;;;;14.95;70.90;99826.38;8168936;29;20050;-77
2022/10/04 12:36:39;;;;;;;11.77;1.90;;;;;;;14.97;70.70;99824.94;8168619;29;20048;-77
2022/10/04 12:40:50;;;;;;;10.00;1.67;;;;;;;15.07;70.55;99819.16;8169141;29;20074;-77
2022/10/04 12:45:11;;;;;;;7.38;1.98;;;;;;;15.09;70.52;99824.28;8163992;29;20052;-77
2022/10/04 12:49:44;;;;;;;4.95;1.30;;;;;;;15.18;69.79;99811.47;8148516;29;20608;-77
2022/10/04 12:53:54;;;;;;;6.22;1.65;;;;;;;15.47;69.40;99808.06;8161862;29;20055;-77
2022/10/04 12:58:06;;;;;;;6.13;1.83;;;;;;;15.43;69.69;99813.38;8180019;28;20054;-77
2022/10/04 13:02:21;;;;;;;8.25;1.73;;;;;;;15.15;70.49;99825.72;8222224;28;20133;-77
2022/10/04 13:07:01;;;;;;;6.57;1.77;;;;;;;14.79;71.66;99839.66;8267453;28;20046;-77
2022/10/04 13:11:23;;;;;;;9.60;1.85;;;;;;;14.57;72.06;99832.44;8237875;28;20142;-78
2022/10/04 13:16:01;;;;;;;9.82;1.63;;;;;;;16.20;70.20;99834.13;8264404;28;20050;-78
2022/10/04 13:20:17;;;;;;;6.22;1.30;;;;;;;17.80;65.75;99827.25;8275608;28;20398;-77
2022/10/04 13:24:18;;;;;;;7.85;1.40;;;;;;;17.87;65.58;99832.94;8274217;28;20046;-77
2022/10/04 13:29:06;;;;;;;8.10;1.35;;;;;;;17.96;65.26;99828.19;8264473;28;20050;-77
2022/10/04 13:33:42;;;;;;;7.88;1.45;;;;;;;17.61;62.20;99818.78;8222428;28;20537;-77
2022/10/04 13:38:06;;;;;;;9.07;1.27;;;;;;;17.51;61.41;99827.38;8230906;28;20043;-78
2022/10/04 13:42:46;;;;;;;9.63;1.52;;;;;;;17.27;63.61;99828.09;8213991;28;20205;-77
2022/10/04 13:46:59;;;;;;;8.20;1.60;;;;;;;17.03;63.24;99841.63;8170945;28;20051;-77
2022/10/04 13:51:35;;;;;;;11.15;1.77;;;;;;;16.62;63.86;99839.69;8198106;28;20055;-75
2022/10/04 14:00:16;;;;;;;11.45;1.63;;;;;;;16.37;63.52;99842.22;8198461;28;20109;-78
2022/10/04 14:04:35;;;;;;;13.63;1.47;;;;;;;16.17;64.83;99848.41;8196582;28;20101;-78
2022/10/04 14:08:47;;;;;;;7.28;1.50;;;;;;;15.98;65.13;99839.81;8198660;29;20179;-77
2022/10/04 14:12:48;;;;;;;8.88;1.52;;;;;;;15.81;65.12;99839.91;8198207;28;20503;-77
2022/10/04 14:17:04;;;;;;;10.48;1.63;;;;;;;15.67;65.81;99839.28;8198547;29;20126;-78
2022/10/04 14:21:33;;;;;;;6.40;1.45;;;;;;;15.67;66.82;99839.28;8197768;28;20063;-77
2022/10/04 14:25:34;;;;;;;;;;;;;;;15.56;67.60;99845.06;8193228;28;20055;-77
2022/10/04 14:29:54;;;;;;;6.20;1.33;;;;;;;15.44;68.26;99853.06;8197174;28;19997;-77
2022/10/04 14:34:13;;;;;;;5.78;1.58;;;;;;;15.42;69.14;99844.44;8181279;28;20073;-77
2022/10/04 14:38:14;;;;;;;5.78;1.52;;;;;;;15.31;69.27;99859.50;8185057;29;20103;-78
2022/10/04 14:42:23;;;;;;;13.32;1.50;;;;;;;15.07;70.08;99859.16;8198141;28;20051;-78
2022/10/04 14:46:57;;;;;;;9.00;1.20;;;;;;;14.88;70.92;99855.97;8197796;28;20472;-77
2022/10/04 14:51:18;;;;;;;7.28;1.40;;;;;;;14.74;70.97;99856.94;8196107;28;20442;-77
2022/10/04 14:55:47;;;;;;;8.75;1.80;;;;;;;14.66;71.94;99865.84;8196638;28;20051;-77
2022/10/04 14:59:54;;;;;;;6.82;1.80;;;;;;;14.62;71.76;99870.31;8201092;28;20082;-77
2022/10/04 15:04:29;;;;;;;9.82;1.70;;;;;;;14.56;71.49;99866.16;8268067;28;20054;-77
2022/10/04 15:09:08;;;;;;;4.63;1.48;;;;;;;14.44;71.24;99867.88;8232804;28;20076;-77
2022/10/04 15:13:22;;;;;;;4.73;1.87;;;;;;;14.40;71.98;99873.13;8246651;28;20050;-77
2022/10/04 15:17:27;;;;;;;5.50;1.70;;;;;;;14.29;70.79;99872.59;8257854;28;20054;-77
2022/10/04 15:21:43;;;;;;;8.93;2.15;;;;;;;14.19;70.80;99875.59;8211747;28;20201;-77
2022/10/04 15:25:46;;;;;;;14.55;1.85;;;;;;;14.09;70.53;99872.34;8224345;28;20117;-77
2022/10/04 15:30:13;;;;;;;7.78;1.52;;;;;;;13.98;71.08;99881.88;8259455;28;20160;-77
2022/10/04 15:34:33;;;;;;;5.72;1.75;;;;;;;13.87;71.64;99882.16;8167526;29;20067;-77
2022/10/04 15:39:03;;;;;;;15.50;1.77;;;;;;;13.72;73.16;99874.41;8185931;28;20051;-77
2022/10/04 15:43:18;;;;;;;14.63;1.65;;;;;;;13.53;74.40;99876.53;8179186;28;20091;-77
2022/10/04 15:47:59;;;;;;;7.25;1.90;;;;;;;13.31;75.81;99879.25;8161449;28;20118;-77
2022/10/04 15:52:12;;;;;;;11.30;2.50;;;;;;;13.08;77.06;99871.06;8197336;28;20058;-77
2022/10/04 15:56:29;;;;;;;10.68;2.30;;;;;;;12.88;78.20;99882.34;8208531;28;20048;-77
2022/10/04 16:00:48;;;;;;;12.95;3.38;;;;;;;12.67;79.13;99886.63;8195701;28;20122;-77
2022/10/04 16:05:38;;;;;;;9.80;2.90;;;;;;;12.50;79.97;99894.56;8239641;28;20046;-77
2022/10/04 16:10:09;;;;;;;12.05;2.40;;;;;;;12.29;81.22;99886.03;8173607;29;20089;-77
2022/10/04 16:14:25;;;;;;;14.02;2.80;;;;;;;12.11;82.27;99889.63;8137794;29;20055;-78
2022/10/04 16:18:35;;;;;;;14.80;3.00;;;;;;;11.96;82.85;99893.41;8147680;29;20083;-78
2022/10/04 16:22:37;;;;;;;11.50;3.45;;;;;;;11.82;83.14;99895.31;8108454;29;20576;-78
2022/10/04 16:26:40;;;;;;;13.65;5.18;;;;;;;11.67;84.00;99906.34;8138230;29;20071;-77
2022/10/04 16:30:49;;;;;;;17.65;4.28;;;;;;;11.54;84.40;99907.09;8119188;29;20054;-78
2022/10/04 16:34:59;;;;;;;22.88;5.53;;;;;;;11.37;84.61;99897.63;8123490;29;20067;-78
2022/10/04 16:43:27;;;;;;;21.40;8.68;;;;;;;11.11;85.58;99909.91;8192822;28;20050;-78
2022/10/04 16:47:32;;;;;;;17.77;7.15;;;;;;;10.98;85.90;99916.06;8264672;28;20042;-78
2022/10/04 16:52:11;;;;;;;32.05;11.68;;;;;;;10.85;86.23;99912.16;8266781;28;20077;-78
2022/10/04 16:56:15;;;;;;;26.15;10.52;;;;;;;10.74;86.35;99910.69;8259866;28;20054;-77
2022/10/04 17:00:34;;;;;;;22.55;9.88;;;;;;;10.62;86.74;99917.63;8269277;28;20136;-77
2022/10/04 17:04:35;;;;;;;42.10;21.17;;;;;;;10.50;86.82;99905.34;8271716;28;20134;-78
2022/10/04 17:08:54;;;;;;;29.50;14.00;;;;;;;10.40;87.22;99910.88;8268273;28;20047;-77
2022/10/04 17:13:50;;;;;;;25.80;12.52;;;;;;;10.29;87.28;99909.38;8271579;28;20069;-77
2022/10/04 17:18:00;;;;;;;48.55;19.40;;;;;;;10.21;87.47;99912.69;8199921;28;20699;-78
2022/10/04 17:22:24;;;;;;;54.30;23.33;;;;;;;10.14;87.58;99914.91;8199860;28;20047;-77
2022/10/04 17:26:44;;;;;;;28.02;13.52;;;;;;;10.05;87.57;99913.88;8179828;28;20415;-77
2022/10/04 17:30:56;;;;;;;25.23;12.40;;;;;;;10.00;87.70;99911.25;8202757;28;20079;-77
2022/10/04 17:35:12;;;;;;;36.22;12.75;;;;;;;9.92;87.85;99914.56;8208932;28;20055;-77
2022/10/04 17:39:43;;;;;;;35.22;14.65;;;;;;;9.85;87.75;99914.91;8212312;28;20499;-77
2022/10/04 17:44:11;;;;;;;30.70;12.43;;;;;;;9.73;88.11;99920.66;8198728;28;20047;-77
2022/10/04 17:57:26;;;;;;;31.02;15.73;;;;;;;9.52;88.52;99927.31;8269076;28;20462;-77
2022/10/04 18:01:44;;;;;;;33.65;16.65;;;;;;;9.47;88.54;99930.03;8277471;28;20180;-78
2022/10/04 18:05:51;;;;;;;43.28;22.45;;;;;;;9.39;88.59;99936.06;8283552;28;20042;-77
2022/10/04 18:09:55;;;;;;;40.45;20.48;;;;;;;9.33;88.54;99939.88;8274921;28;20164;-78
2022/10/04 18:14:01;;;;;;;41.22;17.60;;;;;;;9.29;88.66;99938.81;8291965;28;20048;-77
2022/10/04 18:18:17;;;;;;;31.63;13.63;;;;;;;9.25;88.91;99948.56;8264755;28;20057;-77
2022/10/04 18:22:20;;;;;;;30.33;12.50;;;;;;;9.19;88.81;99949.66;8266224;28;20046;-77
2022/10/04 18:26:23;;;;;;;31.00;12.02;;;;;;;9.13;89.16;99956.16;8261974;28;20105;-77
2022/10/04 18:30:25;;;;;;;32.80;13.88;;;;;;;9.06;89.07;99959.16;8265997;28;20109;-77
2022/10/04 18:34:30;;;;;;;44.65;16.48;;;;;;;9.00;89.11;99959.47;8309963;28;20064;-77
2022/10/04 18:38:35;;;;;;;39.92;12.48;;;;;;;8.95;89.08;99959.47;8302788;28;20542;-78
2022/10/04 18:42:41;;;;;;;35.17;16.77;;;;;;;8.89;89.49;99970.28;8296757;28;20424;-77
2022/10/04 18:46:49;;;;;;;34.33;16.90;;;;;;;8.84;89.64;99962.22;8224819;28;20045;-77
2022/10/04 18:50:50;;;;;;;40.08;13.45;;;;;;;8.82;89.58;99975.19;8297302;28;20083;-77
2022/10/04 18:55:17;;;;;;;29.55;12.27;;;;;;;8.79;89.57;99972.22;8273575;28;20084;-77
2022/10/04 19:04:03;;;;;;;39.35;16.05;;;;;;;8.72;89.87;99974.41;8307063;28;20089;-76
2022/10/04 19:08:20;;;;;;;48.88;15.93;;;;;;;8.69;90.17;99974.94;8276616;28;20084;-77
2022/10/04 19:12:33;;;;;;;21.92;10.23;;;;;;;8.65;90.01;99972.00;8266956;28;20077;-76
2022/10/04 19:16:40;;;;;;;24.77;7.72;;;;;;;8.63;90.17;99979.53;8288392;28;20065;-76
2022/10/04 19:20:51;;;;;;;16.00;7.20;;;;;;;8.61;90.48;99987.09;8269351;28;20092;-76
2022/10/04 19:25:22;;;;;;;24.83;7.53;;;;;;;8.59;90.65;99978.50;8263075;28;20050;-76
2022/10/04 19:29:50;;;;;;;15.65;6.93;;;;;;;8.57;90.50;99979.81;8265766;28;20054;-76
2022/10/04 19:33:56;;;;;;;16.55;7.75;;;;;;;8.53;90.60;99968.81;8282572;28;20051;-76
2022/10/04 19:38:19;;;;;;;23.42;8.55;;;;;;;8.49;90.83;99967.75;8240141;28;20121;-76
2022/10/04 19:42:41;;;;;;;17.13;6.15;;;;;;;8.44;90.95;99971.28;8247632;28;20058;-76
2022/10/04 19:47:01;;;;;;;10.63;6.10;;;;;;;8.43;91.12;99979.59;8249297;28;20421;-76
2022/10/04 19:51:19;;;;;;;20.83;7.95;;;;;;;8.40;91.27;99985.56;8242683;28;20565;-76
2022/10/04 19:55:26;;;;;;;16.13;7.03;;;;;;;8.39;91.19;99984.75;8235587;28;20078;-76
2022/10/04 19:59:37;;;;;;;10.95;5.95;;;;;;;8.37;91.32;99986.06;8247912;28;20046;-76
2022/10/04 20:03:39;;;;;;;17.00;6.28;;;;;;;8.35;91.36;99993.63;8273829;28;20043;-76
2022/10/04 20:07:49;;;;;;;18.67;6.13;;;;;;;8.34;91.63;99986.63;8257666;28;20046;-76
2022/10/04 20:11:52;;;;;;;18.70;6.53;;;;;;;8.28;91.68;99982.31;8244707;28;21436;-76
2022/10/04 20:15:59;;;;;;;30.60;7.28;;;;;;;8.26;91.80;99985.25;8262868;28;20046;-76
2022/10/04 20:20:00;;;;;;;26.23;5.93;;;;;;;8.22;91.75;99978.00;8252417;28;20046;-76
2022/10/04 20:24:01;;;;;;;17.13;5.60;;;;;;;8.19;91.78;99978.56;8243040;28;20134;-76